Guangzhou Baiyun International Airport
ZGGG : now visible

Airfield :











YOU CAN JOIN US ON...

 
LOGIN :

Register | Disclaimer

   EN    FR    IT 

 









Legend :    VFR   Marginal VFR   IFR   Intensive IFR   Very Intensive IFR
Visi :
Ceiling :
>= 8 km
>= 3000ft
5 to 8 km
1000 to 3000 ft
1500m to 5 km
500 to 1000 ft
800 to 1500m
200 to 500 ft
< 800m
< 200 ft
Symbols :   Thunderstorms  Fog  Heavy snow  Heavy precipitations  Wind > 20 kt






- Airport Elevation : 50 ft
- IATA code : CAN


ZGGG - Guangzhou Baiyun International

CURRENT METAR :
  • 240600Z 04005MPS 360V080 9999 BKN053 26/05 Q1013 NOSIG

EXPIRED METARs :
  • 240530Z 02005MPS 330V070 9999 SCT053 26/06 Q1014 NOSIG
  • 240500Z 02006MPS 9999 BKN050 24/05 Q1014 NOSIG
  • 240430Z 02006MPS 340V040 9999 BKN050 24/05 Q1015 NOSIG
  • 240400Z 02005MPS 350V050 9999 BKN050 24/05 Q1015 NOSIG
  • 240330Z 01006MPS CAVOK 23/05 Q1016 NOSIG

TAF TAF ZGGG
Valid from the 24 at 06:00 until the 25 at 06:00 UTC


240308Z 2406/2506 03007G13MPS 8000 BKN040 TX25/2407Z TN21/2422Z
ZGZU FIR / Asia



MET'MAP, your aeronautical weather chart ! - Copyright ORBIFLY December 2007 - Disclaimer

ORBIFLY MET'MAP TEAM :

Programming & Development : Alexandra Zaïnal
Concept & original design : Baudouin d'Aumeries
Assistance for programming : Marc-Olivier Méhu
Technical & hardware support : Manuel Goepfert

Contact : metmap@orbifly.com




SOURCES & CREDITS :

   NOAA       Earth
Advisory